createdAt,value
2019-04-22T00:01:16.424Z,87508.34
2019-04-22T00:03:45.292Z,87509.20
2019-04-22T00:06:32.533Z,87502.89
2019-04-22T00:09:04.038Z,87501.14
2019-04-22T00:11:29.255Z,87502.59
2019-04-22T00:13:59.558Z,87506.52
2019-04-22T00:16:33.529Z,87505.88
2019-04-22T00:19:07.825Z,87502.64
2019-04-22T00:21:25.725Z,87495.27
2019-04-22T00:23:52.980Z,87488.52
2019-04-22T00:26:23.984Z,87495.98
2019-04-22T00:31:21.176Z,87489.12
2019-04-22T00:33:48.098Z,87491.75
2019-04-22T00:36:16.587Z,87487.88
2019-04-22T00:38:44.186Z,87492.34
2019-04-22T00:41:14.936Z,87493.39
2019-04-22T00:43:49.377Z,87491.82
2019-04-22T00:46:11.372Z,87496.62
2019-04-22T00:48:43.049Z,87492.39
2019-04-22T00:51:13.906Z,87495.92
2019-04-22T00:53:56.104Z,87490.38
2019-04-22T00:58:40.650Z,87484.63
2019-04-22T01:01:12.632Z,87487.78
2019-04-22T01:03:44.807Z,87482.45
2019-04-22T01:06:09.549Z,87475.58
2019-04-22T01:08:40.292Z,87476.81
2019-04-22T01:11:03.288Z,87483.91
2019-04-22T01:13:34.679Z,87482.35
2019-04-22T01:16:07.837Z,87479.72
2019-04-22T01:18:27.948Z,87487.22
2019-04-22T01:23:26.802Z,87480.63
2019-04-22T01:25:53.041Z,87478.11
2019-04-22T01:28:22.379Z,87471.30
2019-04-22T01:30:43.835Z,87472.92
2019-04-22T01:33:13.985Z,87470.96
2019-04-22T01:35:53.562Z,87475.82
2019-04-22T01:38:18.896Z,87474.26
2019-04-22T01:41:04.626Z,87474.41
2019-04-22T01:43:24.610Z,87469.06
2019-04-22T01:45:53.338Z,87465.73
2019-04-22T01:48:26.407Z,87466.83
2019-04-22T01:50:49.683Z,87465.27
2019-04-22T01:53:19.380Z,87463.31
2019-04-22T01:55:46.940Z,87467.15
2019-04-22T01:58:12.165Z,87464.81
2019-04-22T02:00:50.492Z,87460.05
2019-04-22T02:03:17.554Z,87459.03
2019-04-22T02:05:43.999Z,87457.32
2019-04-22T02:08:15.150Z,87453.39
2019-04-22T02:13:06.715Z,87446.87
2019-04-22T02:15:46.498Z,87445.73
2019-04-22T02:18:18.687Z,87440.67
2019-04-22T02:20:40.304Z,87429.98
2019-04-22T02:23:45.440Z,87435.86
2019-04-22T02:31:20.654Z,87419.21
2019-04-22T02:33:55.616Z,87418.16
2019-04-22T02:38:44.991Z,87412.76
2019-04-22T02:41:20.988Z,87416.14
2019-04-22T02:43:56.877Z,87405.00
2019-04-22T02:46:13.438Z,87403.43
2019-04-22T02:48:50.343Z,87400.34
2019-04-22T02:53:45.041Z,87388.09
2019-04-22T02:56:04.908Z,87386.16
2019-04-22T02:58:35.673Z,87383.69
2019-04-22T03:01:01.232Z,87378.99
2019-04-22T03:03:31.054Z,87373.67
2019-04-22T03:08:23.611Z,87374.77
2019-04-22T03:10:56.689Z,87376.58
2019-04-22T03:15:52.496Z,87358.63
2019-04-22T03:18:21.783Z,87361.32
2019-04-22T03:20:51.862Z,87367.21
2019-04-22T03:26:01.277Z,87359.59
2019-04-22T03:28:08.824Z,87355.26
2019-04-22T03:40:50.439Z,87339.97
2019-04-22T03:43:14.162Z,87338.69
2019-04-22T03:45:30.302Z,87332.89
2019-04-22T03:48:23.913Z,87333.03
2019-04-22T03:50:36.528Z,87335.11
2019-04-22T03:55:38.730Z,87336.25
2019-04-22T03:57:59.594Z,87335.02
2019-04-22T04:00:44.565Z,87332.34
2019-04-22T04:03:06.854Z,87331.94
2019-04-22T04:15:30.086Z,87334.84
2019-04-22T04:18:07.346Z,87333.05
2019-04-22T04:20:39.408Z,87330.52
2019-04-22T04:23:24.123Z,87330.73
2019-04-22T04:25:42.520Z,87324.52
2019-04-22T04:30:32.075Z,87331.38
2019-04-22T04:33:05.180Z,87323.52
2019-04-22T04:35:40.535Z,87325.11
2019-04-22T04:37:55.741Z,87328.89
2019-04-22T04:40:34.485Z,87327.45
2019-04-22T04:42:58.493Z,87327.63
2019-04-22T04:47:58.007Z,87325.37
2019-04-22T04:50:18.609Z,87322.95
2019-04-22T04:53:09.785Z,87330.20
2019-04-22T04:55:36.162Z,87325.66
2019-04-22T05:12:52.854Z,87313.19
2019-04-22T05:15:12.033Z,87316.48
2019-04-22T05:17:45.494Z,87306.56
2019-04-22T05:20:17.955Z,87310.63
2019-04-22T05:22:35.696Z,87311.88
2019-04-22T05:25:06.049Z,87305.19
2019-04-22T05:30:21.495Z,87298.79
2019-04-22T05:32:24.585Z,87295.59
2019-04-22T05:34:55.764Z,87297.53
2019-04-22T05:39:52.394Z,87295.45
2019-04-22T05:42:21.696Z,87294.91
2019-04-22T05:44:49.914Z,87293.24
2019-04-22T05:47:17.221Z,87294.63
2019-04-22T05:49:45.860Z,87290.97
2019-04-22T05:52:14.924Z,87283.23
2019-04-22T05:54:38.671Z,87280.73
2019-04-22T05:57:15.147Z,87274.48
2019-04-22T06:02:21.209Z,87269.98
2019-04-22T06:04:37.116Z,87268.38
2019-04-22T06:07:06.465Z,87261.82
2019-04-22T06:09:32.373Z,87255.73
2019-04-22T06:12:01.773Z,87251.72
2019-04-22T06:14:32.273Z,87241.95
2019-04-22T06:17:11.262Z,87243.05
2019-04-22T06:19:31.317Z,87242.64
2019-04-22T06:22:09.656Z,87241.30
2019-04-22T06:24:54.100Z,87247.11
2019-04-22T06:27:10.271Z,87241.49
2019-04-22T06:29:41.667Z,87233.40
2019-04-22T06:32:17.884Z,87229.23
2019-04-22T06:34:34.187Z,87225.80
2019-04-22T06:37:05.328Z,87228.34
2019-04-22T06:39:31.919Z,87217.95
2019-04-22T06:41:58.902Z,87223.12
2019-04-22T06:44:24.161Z,87207.66
2019-04-22T06:46:52.287Z,87206.62
2019-04-22T06:49:27.998Z,87211.76
2019-04-22T06:51:45.375Z,87213.36
2019-04-22T06:54:14.135Z,87212.47
2019-04-22T06:56:43.155Z,87208.00
2019-04-22T06:59:11.629Z,87206.72
2019-04-22T07:01:43.142Z,87201.16
2019-04-22T07:04:22.266Z,87195.73
2019-04-22T07:06:41.643Z,87187.30
2019-04-22T07:11:30.697Z,87182.06
2019-04-22T07:19:02.190Z,87170.05
2019-04-22T07:21:34.608Z,87170.79
2019-04-22T07:24:07.028Z,87170.03
2019-04-22T07:26:25.146Z,87168.34
2019-04-22T07:28:57.913Z,87162.12
2019-04-22T07:31:20.536Z,87157.20
2019-04-22T07:33:56.853Z,87153.42
2019-04-22T07:36:38.257Z,87152.11
2019-04-22T07:38:42.452Z,87146.23
2019-04-22T07:41:20.029Z,87149.22
2019-04-22T07:46:13.638Z,87146.77
2019-04-22T07:48:49.912Z,87143.36
2019-04-22T07:51:13.305Z,87144.66
2019-04-22T07:53:39.223Z,87140.64
2019-04-22T07:56:11.853Z,87140.98
2019-04-22T07:58:36.129Z,87142.24
2019-04-22T08:01:12.323Z,87129.36
2019-04-22T08:03:45.399Z,87129.92
2019-04-22T08:06:12.359Z,87124.05
2019-04-22T08:11:22.460Z,87119.95
2019-04-22T08:13:34.248Z,87120.08
2019-04-22T08:16:04.863Z,87116.11
2019-04-22T08:18:37.497Z,87114.55
2019-04-22T08:20:58.965Z,87118.26
2019-04-22T08:23:31.693Z,87114.45
2019-04-22T08:25:59.455Z,87108.96
2019-04-22T08:28:33.937Z,87108.60
2019-04-22T08:33:29.574Z,87098.87
2019-04-22T08:36:09.050Z,87093.67
2019-04-22T08:38:28.701Z,87095.13
2019-04-22T08:41:06.531Z,87093.75
2019-04-22T08:43:36.682Z,87089.98
2019-04-22T08:45:57.125Z,87090.35
2019-04-22T08:48:32.642Z,87084.48
2019-04-22T08:51:00.699Z,87083.80
2019-04-22T08:53:26.468Z,87083.33
2019-04-22T08:56:07.362Z,87077.20
2019-04-22T09:03:17.360Z,87075.05
2019-04-22T09:06:02.432Z,87071.77
2019-04-22T09:08:19.333Z,87070.30
2019-04-22T09:13:13.877Z,87062.77
2019-04-22T09:15:45.537Z,87055.01
2019-04-22T09:18:16.181Z,87049.56
2019-04-22T09:20:40.343Z,87038.31
2019-04-22T09:23:21.499Z,87039.89
2019-04-22T09:28:10.505Z,87024.40
2019-04-22T09:30:40.034Z,87016.45
2019-04-22T09:33:20.852Z,87015.30
2019-04-22T09:36:07.872Z,87018.70
2019-04-22T09:38:31.246Z,87010.08
2019-04-22T09:40:52.683Z,87006.76
2019-04-22T09:43:24.183Z,87002.64
2019-04-22T09:45:48.043Z,86999.88
2019-04-22T09:48:28.217Z,86997.80
2019-04-22T09:50:48.048Z,86999.73
2019-04-22T09:53:20.105Z,86994.58
2019-04-22T09:55:47.752Z,86986.58
2019-04-22T09:58:16.171Z,86986.27
2019-04-22T10:01:13.212Z,86983.73
2019-04-22T10:03:36.531Z,86981.38
2019-04-22T10:06:12.868Z,86977.01
2019-04-22T10:08:34.053Z,86975.09
2019-04-22T10:11:05.584Z,86963.48
2019-04-22T10:13:36.097Z,86970.28
2019-04-22T10:16:03.142Z,86955.67
2019-04-22T10:18:26.313Z,86947.91
2019-04-22T10:20:54.212Z,86942.70
2019-04-22T10:23:25.007Z,86943.47
2019-04-22T10:25:54.094Z,86939.76
2019-04-22T10:28:28.653Z,86928.64
2019-04-22T10:30:47.326Z,86930.58
2019-04-22T10:33:10.077Z,86919.60
2019-04-22T10:35:23.578Z,86918.12
2019-04-22T10:37:50.061Z,86907.84
2019-04-22T10:40:19.464Z,86899.53
2019-04-22T10:42:47.299Z,86898.36
2019-04-22T10:45:14.659Z,86894.69
2019-04-22T10:47:42.332Z,86897.66
2019-04-22T10:50:12.369Z,86890.83
2019-04-22T10:52:39.429Z,86893.30
2019-04-22T10:55:09.776Z,86888.25
2019-04-22T10:57:36.965Z,86889.54
2019-04-22T11:00:06.103Z,86875.61
2019-04-22T11:02:32.887Z,86878.14
2019-04-22T11:04:59.639Z,86880.49
2019-04-22T11:07:38.676Z,86873.22
2019-04-22T11:10:15.435Z,86864.99
2019-04-22T11:12:29.989Z,86857.70
2019-04-22T11:14:55.855Z,86851.89
2019-04-22T11:17:23.971Z,86857.04
2019-04-22T11:19:50.775Z,86849.14
2019-04-22T11:22:23.941Z,86842.79
2019-04-22T11:24:46.679Z,86843.56
2019-04-22T11:27:14.759Z,86845.33
2019-04-22T11:29:41.835Z,86854.09
2019-04-22T11:32:08.660Z,86841.05
2019-04-22T11:34:35.493Z,86833.54
2019-04-22T11:37:03.293Z,86832.53
2019-04-22T11:39:32.794Z,86832.29
2019-04-22T11:41:58.648Z,86825.30
2019-04-22T11:44:27.525Z,86818.16
2019-04-22T11:46:54.391Z,86818.61
2019-04-22T11:49:21.886Z,86814.42
2019-04-22T11:51:49.863Z,86811.31
2019-04-22T11:54:17.032Z,86809.22
2019-04-22T11:56:45.212Z,86811.31
2019-04-22T11:59:12.977Z,86803.87
2019-04-22T12:01:39.829Z,86803.70
2019-04-22T12:04:07.654Z,86809.06
2019-04-22T12:06:35.865Z,86805.50
2019-04-22T12:09:07.697Z,86798.21
2019-04-22T12:11:34.584Z,86801.94
2019-04-22T12:14:02.114Z,86799.25
2019-04-22T12:16:29.667Z,86795.66
2019-04-22T12:18:58.500Z,86797.16
2019-04-22T12:21:24.986Z,86783.58
2019-04-22T12:23:52.799Z,86778.17
2019-04-22T12:26:21.491Z,86781.00
2019-04-22T12:28:49.030Z,86780.80
2019-04-22T12:31:17.493Z,86775.00
2019-04-22T12:33:45.422Z,86772.02
2019-04-22T12:36:12.789Z,86766.88
2019-04-22T12:38:40.000Z,86763.69
2019-04-22T12:41:11.968Z,86761.80
2019-04-22T12:43:38.702Z,86764.39
2019-04-22T12:46:05.996Z,86752.05
2019-04-22T12:48:32.942Z,86757.70
2019-04-22T12:51:00.898Z,86754.67
2019-04-22T12:53:28.129Z,86751.18
2019-04-22T12:55:55.854Z,86750.41
2019-04-22T12:58:23.623Z,86740.19
2019-04-22T13:00:51.428Z,86735.07
2019-04-22T13:03:20.371Z,86741.25
2019-04-22T13:05:47.338Z,86739.54
2019-04-22T13:08:14.057Z,86730.07
2019-04-22T13:10:51.354Z,86728.82
2019-04-22T13:13:11.166Z,86724.95
2019-04-22T13:15:39.222Z,86725.13
2019-04-22T13:18:17.075Z,86721.55
2019-04-22T13:20:34.684Z,86722.32
2019-04-22T13:23:02.125Z,86719.07
2019-04-22T13:25:31.937Z,86725.06
2019-04-22T13:27:57.715Z,86721.04
2019-04-22T13:30:26.316Z,86723.31
2019-04-22T13:32:54.558Z,86716.00
2019-04-22T13:35:24.157Z,86716.03
2019-04-22T13:37:52.939Z,86712.95
2019-04-22T13:40:21.089Z,86716.00
2019-04-22T13:42:49.122Z,86707.89
2019-04-22T13:45:19.599Z,86706.30
2019-04-22T13:48:02.877Z,86703.39
2019-04-22T13:57:58.363Z,86703.20
2019-04-22T14:00:18.407Z,86694.70
2019-04-22T14:02:46.466Z,86702.55
2019-04-22T14:05:14.884Z,86694.77
2019-04-22T14:07:43.089Z,86691.98
2019-04-22T14:10:10.213Z,86700.33
2019-04-22T14:12:37.138Z,86704.11
2019-04-22T14:15:06.899Z,86701.89
2019-04-22T14:17:34.845Z,86690.95
2019-04-22T14:20:06.796Z,86692.07
2019-04-22T14:22:34.648Z,86687.92
2019-04-22T14:25:02.873Z,86686.11
2019-04-22T14:27:43.532Z,86676.22
2019-04-22T14:29:59.770Z,86678.72
2019-04-22T14:32:29.322Z,86669.69
2019-04-22T14:34:55.292Z,86674.31
2019-04-22T14:37:22.477Z,86676.61
2019-04-22T14:39:49.218Z,86671.25
2019-04-22T14:42:36.411Z,86666.16
2019-04-22T14:45:20.254Z,86669.44
2019-04-22T14:47:45.581Z,86674.91
2019-04-22T14:50:05.290Z,86676.16
2019-04-22T14:52:36.032Z,86673.25
2019-04-22T14:54:52.083Z,86673.47
2019-04-22T14:57:08.497Z,86667.97
2019-04-22T14:59:35.817Z,86669.84
2019-04-22T15:02:03.537Z,86665.88
2019-04-22T15:04:31.031Z,86671.13
2019-04-22T15:06:59.062Z,86663.16
2019-04-22T15:09:26.159Z,86663.20
2019-04-22T15:12:04.947Z,86674.41
2019-04-22T15:14:21.609Z,86676.79
2019-04-22T15:16:48.846Z,86671.05
2019-04-22T15:19:15.968Z,86668.29
2019-04-22T15:21:43.035Z,86676.69
2019-04-22T15:24:10.829Z,86676.11
2019-04-22T15:26:38.253Z,86677.16
2019-04-22T15:29:11.377Z,86686.69
2019-04-22T15:31:35.362Z,86689.56
2019-04-22T15:34:02.729Z,86691.48
2019-04-22T15:36:30.489Z,86689.34
2019-04-22T15:38:57.636Z,86696.46
2019-04-22T15:41:24.926Z,86692.02
2019-04-22T15:43:52.102Z,86687.44
2019-04-22T15:46:20.213Z,86686.37
2019-04-22T15:48:48.465Z,86682.08
2019-04-22T15:51:16.525Z,86682.70
2019-04-22T15:53:43.542Z,86681.36
2019-04-22T15:56:10.606Z,86685.37
2019-04-22T15:58:37.583Z,86685.80
2019-04-22T16:01:12.936Z,86686.83
2019-04-22T16:03:34.311Z,86683.97
2019-04-22T16:06:02.157Z,86685.56
2019-04-22T16:08:31.966Z,86682.70
2019-04-22T16:10:57.870Z,86678.80
2019-04-22T16:13:28.348Z,86677.12
2019-04-22T16:15:54.461Z,86675.16
2019-04-22T16:18:22.497Z,86677.35
2019-04-22T16:20:50.319Z,86685.03
2019-04-22T16:23:20.888Z,86685.41
2019-04-22T16:25:47.207Z,86686.29
2019-04-22T16:28:15.381Z,86685.56
2019-04-22T16:30:43.514Z,86685.48
2019-04-22T16:33:13.080Z,86682.36
2019-04-22T16:35:40.556Z,86681.23
2019-04-22T16:38:08.726Z,86681.20
2019-04-22T16:40:36.753Z,86685.02
2019-04-22T16:43:06.373Z,86682.38
2019-04-22T16:45:33.614Z,86683.35
2019-04-22T16:48:02.042Z,86684.27
2019-04-22T16:50:29.268Z,86690.11
2019-04-22T16:52:57.758Z,86685.49
2019-04-22T16:55:24.712Z,86688.12
2019-04-22T16:57:52.566Z,86687.67
2019-04-22T17:00:20.636Z,86684.58
2019-04-22T17:02:50.079Z,86688.73
2019-04-22T17:05:17.901Z,86684.86
2019-04-22T17:07:45.727Z,86692.87
2019-04-22T17:10:15.537Z,86693.91
2019-04-22T17:12:53.153Z,86693.59
2019-04-22T17:15:18.035Z,86698.15
2019-04-22T17:17:49.152Z,86696.12
2019-04-22T17:20:17.410Z,86698.09
2019-04-22T17:22:44.271Z,86689.55
2019-04-22T17:25:12.051Z,86692.05
2019-04-22T17:27:39.289Z,86693.37
2019-04-22T17:30:08.494Z,86688.32
2019-04-22T17:32:35.726Z,86694.02
2019-04-22T17:35:06.368Z,86700.48
2019-04-22T17:37:35.443Z,86699.55
2019-04-22T17:40:21.971Z,86696.14
2019-04-22T17:42:50.586Z,86702.50
2019-04-22T17:45:25.992Z,86704.35
2019-04-22T17:47:49.335Z,86705.39
2019-04-22T17:50:28.584Z,86699.84
2019-04-22T17:53:07.234Z,86711.44
2019-04-22T17:55:21.403Z,86715.95
2019-04-22T17:57:49.518Z,86716.95
2019-04-22T18:00:19.041Z,86721.48
2019-04-22T18:02:45.966Z,86727.16
2019-04-22T18:05:03.492Z,86725.43
2019-04-22T18:07:42.969Z,86727.88
2019-04-22T18:10:30.721Z,86725.78
2019-04-22T18:12:50.119Z,86726.73
2019-04-22T18:15:15.830Z,86736.77
2019-04-22T18:17:43.663Z,86732.09
2019-04-22T18:20:04.566Z,86735.04
2019-04-22T18:22:31.122Z,86734.59
2019-04-22T18:24:58.323Z,86739.48
2019-04-22T18:27:48.520Z,86741.90
2019-04-22T18:29:57.149Z,86747.61
2019-04-22T18:32:25.536Z,86749.80
2019-04-22T18:34:51.662Z,86748.36
2019-04-22T18:37:19.904Z,86752.78
2019-04-22T18:39:58.710Z,86754.67
2019-04-22T18:42:22.001Z,86753.70
2019-04-22T18:45:09.916Z,86759.91
2019-04-22T18:47:18.636Z,86757.67
2019-04-22T18:49:46.275Z,86758.17
2019-04-22T18:52:19.721Z,86757.14
2019-04-22T18:54:45.777Z,86770.66
2019-04-22T18:57:15.564Z,86775.42
2019-04-22T18:59:31.229Z,86778.30
2019-04-22T19:02:01.461Z,86774.73
2019-04-22T19:04:31.694Z,86777.53
2019-04-22T19:07:17.124Z,86772.41
2019-04-22T19:09:49.956Z,86774.92
2019-04-22T19:14:45.543Z,86772.91
2019-04-22T19:17:21.519Z,86783.30
2019-04-22T19:22:03.512Z,86790.70
2019-04-22T19:24:34.386Z,86789.28
2019-04-22T19:27:09.312Z,86794.13
2019-04-22T19:29:39.240Z,86798.68
2019-04-22T19:32:07.263Z,86801.36
2019-04-22T19:34:32.258Z,86794.39
2019-04-22T19:37:03.518Z,86800.09
2019-04-22T19:39:27.538Z,86794.67
2019-04-22T19:42:01.903Z,86801.14
2019-04-22T19:44:30.844Z,86806.67
2019-04-22T19:47:14.350Z,86800.95
2019-04-22T19:49:31.745Z,86796.37
2019-04-22T19:52:05.549Z,86800.87
2019-04-22T19:54:27.676Z,86796.98
2019-04-22T19:56:44.530Z,86794.91
2019-04-22T19:59:11.830Z,86795.48
2019-04-22T20:01:48.564Z,86784.74
2019-04-22T20:04:22.988Z,86788.92
2019-04-22T20:06:47.964Z,86791.00
2019-04-22T20:09:21.021Z,86792.48
2019-04-22T20:11:48.069Z,86792.48
2019-04-22T20:14:12.568Z,86799.16
2019-04-22T20:16:46.911Z,86792.77
2019-04-22T20:19:12.409Z,86799.37
2019-04-22T20:21:40.303Z,86799.16
2019-04-22T20:23:55.916Z,86791.78
2019-04-22T20:26:40.763Z,86794.84
2019-04-22T20:29:02.778Z,86797.48
2019-04-22T20:31:31.756Z,86796.38
2019-04-22T20:34:03.513Z,86804.57
2019-04-22T20:38:54.822Z,86798.38
2019-04-22T20:41:23.069Z,86797.69
2019-04-22T20:43:57.281Z,86798.25
2019-04-22T20:46:25.319Z,86803.95
2019-04-22T20:48:54.831Z,86800.39
2019-04-22T20:51:29.738Z,86803.45
2019-04-22T20:53:56.548Z,86802.56
2019-04-22T20:56:18.709Z,86805.59
2019-04-22T20:58:46.605Z,86805.81
2019-04-22T21:01:10.390Z,86800.38
2019-04-22T21:03:33.314Z,86811.16
2019-04-22T21:06:11.633Z,86812.94
2019-04-22T21:08:42.173Z,86808.05
2019-04-22T21:11:04.811Z,86812.22
2019-04-22T21:13:33.022Z,86809.44
2019-04-22T21:16:10.558Z,86812.99
2019-04-22T21:18:30.627Z,86812.22
2019-04-22T21:21:09.641Z,86816.54
2019-04-22T21:23:27.665Z,86807.11
2019-04-22T21:26:05.271Z,86806.75
2019-04-22T21:28:33.197Z,86808.47
2019-04-22T21:30:56.845Z,86807.36
2019-04-22T21:33:20.971Z,86809.39
2019-04-22T21:38:26.559Z,86808.07
2019-04-22T21:40:47.496Z,86808.13
2019-04-22T21:43:24.463Z,86800.67
2019-04-22T21:45:53.104Z,86802.55
2019-04-22T21:48:27.922Z,86805.05
2019-04-22T21:50:58.468Z,86806.26
2019-04-22T21:53:25.180Z,86806.97
2019-04-22T21:55:50.689Z,86810.88
2019-04-22T21:58:12.551Z,86806.38
2019-04-22T22:00:54.178Z,86809.77
2019-04-22T22:03:14.325Z,86802.97
2019-04-22T22:05:30.026Z,86800.90
2019-04-22T22:08:04.070Z,86802.31
2019-04-22T22:10:43.465Z,86802.30
2019-04-22T22:13:06.209Z,86800.98
2019-04-22T22:15:37.651Z,86806.06
2019-04-22T22:18:02.069Z,86811.63
2019-04-22T22:20:31.022Z,86808.84
2019-04-22T22:23:12.429Z,86806.45
2019-04-22T22:25:30.160Z,86802.50
2019-04-22T22:27:53.422Z,86809.16
2019-04-22T22:30:45.876Z,86804.29
2019-04-22T22:33:01.360Z,86797.14
2019-04-22T22:35:25.721Z,86794.81
2019-04-22T22:37:57.571Z,86804.38
2019-04-22T22:40:11.823Z,86801.73
2019-04-22T22:42:40.450Z,86786.47
2019-04-22T22:45:19.250Z,86793.78
2019-04-22T22:47:53.379Z,86786.98
2019-04-22T22:50:25.963Z,86791.89
2019-04-22T22:53:09.677Z,86786.83
2019-04-22T22:55:31.323Z,86788.38
2019-04-22T22:57:58.502Z,86785.19
2019-04-22T23:00:33.892Z,86774.97
2019-04-22T23:03:16.852Z,86781.39
2019-04-22T23:05:35.363Z,86777.64
2019-04-22T23:08:00.770Z,86782.35
2019-04-22T23:10:34.055Z,86770.09
2019-04-22T23:13:05.295Z,86768.17
2019-04-22T23:15:26.098Z,86767.45
2019-04-22T23:17:39.008Z,86761.97
2019-04-22T23:20:07.241Z,86766.08
2019-04-22T23:22:50.941Z,86767.76
2019-04-22T23:25:27.310Z,86760.45
2019-04-22T23:27:49.147Z,86766.44
2019-04-22T23:30:15.905Z,86764.41
2019-04-22T23:32:44.165Z,86765.41
2019-04-22T23:35:22.931Z,86763.19
2019-04-22T23:37:54.286Z,86767.75
2019-04-22T23:42:53.001Z,86764.42
2019-04-22T23:45:21.182Z,86768.38
2019-04-22T23:47:42.363Z,86763.16
2019-04-22T23:50:24.462Z,86768.49
2019-04-22T23:52:49.420Z,86753.25
2019-04-22T23:55:17.763Z,86759.31
2019-04-22T23:57:50.536Z,86760.03
